createdAt,value
2023-11-23T00:04:26.102Z,131.00
2023-11-23T00:09:33.818Z,116.80
2023-11-23T00:14:41.145Z,96.20
2023-11-23T00:19:48.958Z,110.50
2023-11-23T00:24:56.631Z,99.70
2023-11-23T00:30:04.182Z,126.00
2023-11-23T00:35:11.960Z,111.30
2023-11-23T00:40:19.618Z,124.20
2023-11-23T00:45:27.009Z,107.60
2023-11-23T00:50:34.673Z,120.60
2023-11-23T00:55:42.076Z,111.70
2023-11-23T01:00:49.619Z,113.90
2023-11-23T01:05:57.413Z,122.30
2023-11-23T01:11:04.742Z,116.50
2023-11-23T01:16:13.247Z,124.50
2023-11-23T01:21:21.224Z,118.80
2023-11-23T01:26:28.514Z,102.30
2023-11-23T01:31:36.011Z,116.80
2023-11-23T01:36:43.324Z,84.00
2023-11-23T01:41:50.669Z,107.40
2023-11-23T01:46:59.618Z,108.70
2023-11-23T01:52:07.640Z,99.10
2023-11-23T01:57:17.225Z,98.10
2023-11-23T02:02:24.574Z,115.70
2023-11-23T02:07:31.809Z,101.20
2023-11-23T02:12:39.867Z,102.20
2023-11-23T02:17:47.375Z,97.90
2023-11-23T02:22:54.770Z,87.40
2023-11-23T02:28:02.049Z,92.90
2023-11-23T02:33:12.597Z,97.10
2023-11-23T02:38:19.999Z,93.10
2023-11-23T02:43:27.992Z,93.00
2023-11-23T02:48:35.375Z,108.60
2023-11-23T02:53:45.404Z,89.00
2023-11-23T02:58:52.955Z,97.80
2023-11-23T03:04:00.670Z,87.10
2023-11-23T03:09:09.789Z,83.60
2023-11-23T03:14:17.850Z,79.90
2023-11-23T03:19:25.052Z,90.30
2023-11-23T03:24:32.844Z,84.80
2023-11-23T03:29:40.281Z,86.60
2023-11-23T03:34:47.863Z,77.40
2023-11-23T03:39:56.552Z,82.10
2023-11-23T03:45:04.967Z,83.10
2023-11-23T03:50:12.810Z,78.80
2023-11-23T03:55:20.210Z,82.70
2023-11-23T04:00:29.251Z,79.00
2023-11-23T04:05:38.643Z,84.90
2023-11-23T04:10:46.068Z,76.70
2023-11-23T04:15:53.305Z,72.40
2023-11-23T04:21:00.700Z,71.90
2023-11-23T04:26:09.277Z,71.70
2023-11-23T04:31:16.407Z,86.20
2023-11-23T04:36:24.759Z,76.80
2023-11-23T04:41:32.006Z,76.50
2023-11-23T04:46:39.403Z,77.30
2023-11-23T04:51:46.719Z,74.20
2023-11-23T04:56:54.393Z,71.70
2023-11-23T05:02:04.102Z,73.00
2023-11-23T05:07:11.585Z,63.40
2023-11-23T05:12:19.251Z,58.90
2023-11-23T05:17:26.531Z,58.00
2023-11-23T05:22:34.410Z,56.50
2023-11-23T05:27:41.798Z,51.40
2023-11-23T05:32:49.293Z,66.40
2023-11-23T05:37:56.585Z,63.30
2023-11-23T05:43:06.175Z,48.80
2023-11-23T05:48:13.992Z,54.30
2023-11-23T05:53:21.235Z,51.10
2023-11-23T05:58:29.210Z,53.10
2023-11-23T06:03:38.472Z,55.50
2023-11-23T06:08:45.744Z,58.00
2023-11-23T06:13:53.023Z,50.80
2023-11-23T06:19:03.518Z,47.30
2023-11-23T06:24:12.535Z,46.90
2023-11-23T06:29:19.992Z,49.90
2023-11-23T06:34:27.431Z,40.60
2023-11-23T06:39:38.291Z,41.40
2023-11-23T06:44:45.689Z,45.10
2023-11-23T06:49:53.061Z,37.90
2023-11-23T06:55:00.452Z,43.50
2023-11-23T07:00:18.365Z,39.80
2023-11-23T07:05:26.662Z,40.60
2023-11-23T07:10:35.740Z,31.50
2023-11-23T07:15:43.241Z,34.10
2023-11-23T07:20:54.651Z,32.00
2023-11-23T07:26:02.204Z,34.20
2023-11-23T07:31:10.675Z,30.00
2023-11-23T07:36:18.277Z,30.50
2023-11-23T07:41:25.737Z,27.00
2023-11-23T07:46:33.425Z,27.30
2023-11-23T07:51:41.144Z,29.40
2023-11-23T07:56:49.448Z,24.90
2023-11-23T08:01:57.933Z,32.00
2023-11-23T08:07:05.582Z,37.50
2023-11-23T08:12:13.310Z,27.20
2023-11-23T08:17:20.664Z,36.60
2023-11-23T08:22:28.162Z,30.40
2023-11-23T08:27:36.622Z,32.00
2023-11-23T08:32:45.361Z,33.20
2023-11-23T08:37:52.709Z,28.70
2023-11-23T08:43:00.435Z,25.60
2023-11-23T08:48:09.380Z,24.80
2023-11-23T08:53:17.370Z,23.40
2023-11-23T08:58:25.739Z,21.90
2023-11-23T09:03:34.143Z,23.30
2023-11-23T09:08:42.840Z,23.60
2023-11-23T09:13:50.217Z,22.00
2023-11-23T09:19:34.363Z,20.60
2023-11-23T09:24:41.939Z,20.80
2023-11-23T09:29:49.792Z,19.30
2023-11-23T09:34:57.550Z,21.80
2023-11-23T09:40:06.622Z,19.10
2023-11-23T09:45:19.147Z,19.80
2023-11-23T09:50:34.027Z,17.90
2023-11-23T09:55:45.073Z,18.90
2023-11-23T10:00:53.749Z,16.10
2023-11-23T10:06:01.355Z,13.70
2023-11-23T10:11:09.406Z,19.10
2023-11-23T10:16:17.377Z,10.80
2023-11-23T10:21:25.346Z,12.10
2023-11-23T10:26:33.720Z,8.80
2023-11-23T10:31:41.210Z,11.10
2023-11-23T10:36:51.117Z,11.40
2023-11-23T10:41:58.761Z,11.40
2023-11-23T10:47:09.011Z,10.00
2023-11-23T10:52:19.677Z,9.20
2023-11-23T10:57:28.769Z,11.00
2023-11-23T11:02:36.575Z,7.40
2023-11-23T11:07:44.185Z,5.30
2023-11-23T11:12:52.571Z,10.10
2023-11-23T11:18:08.580Z,8.50
2023-11-23T11:23:16.117Z,10.60
2023-11-23T11:28:24.609Z,7.60
2023-11-23T11:33:33.684Z,7.40
2023-11-23T11:38:42.153Z,8.60
2023-11-23T11:43:50.824Z,9.30
2023-11-23T11:48:59.754Z,7.70
2023-11-23T11:54:08.357Z,7.30
2023-11-23T11:59:19.065Z,9.90
2023-11-23T12:04:26.589Z,8.10
2023-11-23T12:09:41.251Z,8.40
2023-11-23T12:14:51.457Z,8.60
2023-11-23T12:19:59.356Z,6.50
2023-11-23T12:25:10.539Z,8.60
2023-11-23T12:30:18.171Z,19.00
2023-11-23T12:35:27.737Z,13.60
2023-11-23T12:40:35.322Z,14.20
2023-11-23T12:45:44.750Z,21.90
2023-11-23T12:50:52.609Z,26.00
2023-11-23T12:56:00.578Z,22.20
2023-11-23T13:01:09.168Z,12.90
2023-11-23T13:06:17.553Z,14.10
2023-11-23T13:11:25.148Z,13.80
2023-11-23T13:16:32.929Z,17.40
2023-11-23T13:21:40.449Z,20.60
2023-11-23T13:26:48.307Z,27.90
2023-11-23T13:31:59.302Z,37.00
2023-11-23T13:37:07.030Z,30.10
2023-11-23T13:42:15.906Z,21.30
2023-11-23T13:47:25.345Z,23.30
2023-11-23T13:52:33.583Z,17.20
2023-11-23T13:57:41.297Z,17.40
2023-11-23T14:02:48.943Z,20.50
2023-11-23T14:07:57.232Z,23.60
2023-11-23T14:13:05.289Z,12.60
2023-11-23T14:18:14.789Z,11.90
2023-11-23T14:23:22.462Z,16.00
2023-11-23T14:28:29.992Z,18.60
2023-11-23T14:33:37.405Z,17.80
2023-11-23T14:38:44.884Z,17.70
2023-11-23T14:43:52.904Z,14.60
2023-11-23T14:49:00.217Z,18.40
2023-11-23T14:54:10.860Z,16.90
2023-11-23T14:59:20.147Z,21.10
2023-11-23T15:04:27.704Z,12.00
2023-11-23T15:09:35.331Z,15.20
2023-11-23T15:14:43.491Z,15.70
2023-11-23T15:19:51.741Z,19.80
2023-11-23T15:25:08.312Z,14.00
2023-11-23T15:30:18.225Z,12.90
2023-11-23T15:35:25.723Z,12.80
2023-11-23T15:40:33.007Z,17.70
2023-11-23T15:45:42.651Z,16.40
2023-11-23T15:50:50.509Z,16.80
2023-11-23T15:55:57.895Z,19.50
2023-11-23T16:01:09.309Z,14.50
2023-11-23T16:06:16.756Z,12.50
2023-11-23T16:11:24.029Z,17.70
2023-11-23T16:16:32.217Z,19.20
2023-11-23T16:21:41.459Z,14.30
2023-11-23T16:26:48.851Z,15.20
2023-11-23T16:32:01.746Z,22.80
2023-11-23T16:37:12.391Z,17.80
2023-11-23T16:42:20.223Z,13.50
2023-11-23T16:47:27.580Z,5.30
2023-11-23T16:52:35.015Z,4.60
2023-11-23T16:57:44.216Z,4.80
2023-11-23T17:02:51.560Z,5.40
2023-11-23T17:07:59.185Z,5.10
2023-11-23T17:13:07.854Z,4.70
2023-11-23T17:18:15.723Z,5.00
2023-11-23T17:23:23.144Z,5.60
2023-11-23T17:28:30.369Z,4.60
2023-11-23T17:33:38.326Z,4.70
2023-11-23T17:38:45.898Z,5.30
2023-11-23T17:43:53.237Z,6.70
2023-11-23T17:49:00.704Z,6.90
2023-11-23T17:54:09.085Z,6.00
2023-11-23T17:59:26.219Z,7.50
2023-11-23T18:04:42.037Z,6.00
2023-11-23T18:09:50.616Z,9.30
2023-11-23T18:14:58.037Z,6.00
2023-11-23T18:20:06.724Z,2.90
2023-11-23T18:25:14.091Z,4.50
2023-11-23T18:30:22.205Z,7.10
2023-11-23T18:35:29.608Z,5.90
2023-11-23T18:40:37.168Z,4.20
2023-11-23T18:45:44.474Z,6.20
2023-11-23T18:50:51.883Z,4.90
2023-11-23T18:55:59.139Z,5.60
2023-11-23T19:01:06.841Z,7.10
2023-11-23T19:06:14.511Z,3.10
2023-11-23T19:11:21.881Z,6.40
2023-11-23T19:16:29.321Z,8.20
2023-11-23T19:21:45.275Z,5.70
2023-11-23T19:26:54.237Z,12.00
2023-11-23T19:32:08.942Z,9.70
2023-11-23T19:37:17.730Z,7.90
2023-11-23T19:42:26.961Z,7.50
2023-11-23T19:47:35.234Z,7.90
2023-11-23T19:52:46.391Z,7.90
2023-11-23T19:57:53.845Z,4.80
2023-11-23T20:03:01.246Z,7.60
2023-11-23T20:08:13.814Z,7.40
2023-11-23T20:13:21.318Z,7.30
2023-11-23T20:18:29.766Z,6.40
2023-11-23T20:23:37.139Z,7.70
2023-11-23T20:28:45.183Z,5.80
2023-11-23T20:33:52.618Z,9.20
2023-11-23T20:39:00.195Z,8.90
2023-11-23T20:44:08.008Z,5.20
2023-11-23T20:49:15.555Z,6.20
2023-11-23T20:54:23.847Z,4.50
2023-11-23T20:59:32.045Z,5.70
2023-11-23T21:04:41.754Z,4.60
2023-11-23T21:09:51.518Z,4.70
2023-11-23T21:14:59.072Z,5.40
2023-11-23T21:20:07.859Z,6.10
2023-11-23T21:25:15.879Z,18.90
2023-11-23T21:30:23.574Z,3.60
2023-11-23T21:35:33.794Z,3.60
2023-11-23T21:40:41.671Z,3.20
2023-11-23T21:45:49.036Z,2.30
2023-11-23T21:50:56.366Z,4.40
2023-11-23T21:56:04.134Z,4.70
2023-11-23T22:01:12.267Z,4.70
2023-11-23T22:06:19.798Z,3.30
2023-11-23T22:11:27.404Z,2.30
2023-11-23T22:16:35.266Z,4.40
2023-11-23T22:21:45.894Z,6.00
2023-11-23T22:26:54.236Z,3.70
2023-11-23T22:32:02.502Z,3.70
2023-11-23T22:37:10.848Z,6.10
2023-11-23T22:42:19.504Z,4.70
2023-11-23T22:47:26.807Z,6.30
2023-11-23T22:52:34.267Z,1.60
2023-11-23T22:57:41.768Z,5.00
2023-11-23T23:02:49.299Z,4.00
2023-11-23T23:07:58.099Z,4.20
2023-11-23T23:13:05.715Z,1.60
2023-11-23T23:18:13.277Z,3.00
2023-11-23T23:23:20.743Z,2.60
2023-11-23T23:28:32.107Z,2.20
2023-11-23T23:33:40.227Z,1.50
2023-11-23T23:38:47.966Z,3.50
2023-11-23T23:43:55.261Z,4.20
2023-11-23T23:49:02.970Z,5.00
2023-11-23T23:54:10.513Z,4.60
2023-11-23T23:59:17.864Z,3.60
